Time;durP1;ratioP1;P1;durP2;ratioP2;P2;SDS_P1;SDS_P2;PMS_P1;PMS_P2;Temp;Humidity;BMP_temperature;BMP_pressure;BME280_temperature;BME280_humidity;BME280_pressure;Samples;Min_cycle;Max_cycle;Signal;HPM_P1;HPM_P2
2022/08/12 00:44:27;;;;;;;5.03;3.63;;;20.30;99.90;;;;;;4977531;28;20249;-61
2022/08/12 00:46:59;;;;;;;4.80;3.63;;;20.20;99.90;;;;;;4982316;28;20575;-61
2022/08/12 00:49:27;;;;;;;7.50;3.33;;;20.30;99.90;;;;;;4984846;28;20030;-61
2022/08/12 00:52:05;;;;;;;5.25;3.35;;;20.20;99.90;;;;;;4980200;28;20030;-62
2022/08/12 00:54:37;;;;;;;5.55;3.75;;;20.10;99.90;;;;;;4988012;28;20029;-61
2022/08/12 00:57:07;;;;;;;5.38;3.50;;;20.00;99.90;;;;;;4981261;28;20034;-62
2022/08/12 00:59:34;;;;;;;6.68;3.45;;;19.90;99.90;;;;;;4984977;28;20022;-61
2022/08/12 01:02:03;;;;;;;6.22;3.60;;;20.00;99.90;;;;;;4979734;28;20467;-61
2022/08/12 01:12:43;;;;;;;4.90;3.25;;;19.80;99.90;;;;;;4984132;28;20033;-61
2022/08/12 01:15:12;;;;;;;6.43;3.80;;;19.80;99.90;;;;;;4986965;28;20586;-61
2022/08/12 01:17:41;;;;;;;4.93;3.50;;;19.70;99.90;;;;;;4982428;28;20046;-61
2022/08/12 01:20:11;;;;;;;4.80;3.40;;;19.70;99.90;;;;;;4987434;28;20032;-61
2022/08/12 01:23:30;;;;;;;4.07;3.50;;;19.70;99.90;;;;;;4987107;28;20031;-60
2022/08/12 01:25:59;;;;;;;5.50;3.72;;;19.60;99.90;;;;;;4992022;28;20408;-60
2022/08/12 01:28:26;;;;;;;8.13;3.72;;;19.50;99.90;;;;;;4985129;28;20037;-61
2022/08/12 01:30:53;;;;;;;7.50;3.75;;;19.50;99.90;;;;;;4987914;28;20022;-60
2022/08/12 01:33:20;;;;;;;4.65;3.35;;;19.50;99.90;;;;;;4984073;28;20528;-61
2022/08/12 01:35:57;;;;;;;5.28;3.70;;;19.50;99.90;;;;;;4982271;28;20521;-61
2022/08/12 01:38:25;;;;;;;6.75;3.72;;;19.40;99.90;;;;;;4985639;28;20342;-61
2022/08/12 01:40:51;;;;;;;5.55;3.58;;;19.30;99.90;;;;;;4983715;28;20023;-61
2022/08/12 01:43:23;;;;;;;4.60;3.33;;;19.30;99.90;;;;;;4990592;28;20123;-61
2022/08/12 01:46:23;;;;;;;5.47;3.50;;;19.30;99.90;;;;;;4989479;28;20109;-59
2022/08/12 01:49:20;;;;;;;5.30;3.67;;;19.20;99.90;;;;;;4976717;28;20064;-61
2022/08/12 01:51:55;;;;;;;5.53;3.60;;;19.10;99.90;;;;;;4981564;28;20034;-61
2022/08/12 01:54:21;;;;;;;4.38;3.97;;;19.10;99.90;;;;;;4979387;28;20414;-61
2022/08/12 01:56:53;;;;;;;4.32;3.60;;;19.10;99.90;;;;;;4988069;28;20513;-61
2022/08/12 01:59:45;;;;;;;4.53;3.50;;;19.00;99.90;;;;;;4991655;28;20042;-60
2022/08/12 02:02:18;;;;;;;6.78;3.78;;;19.00;99.90;;;;;;4986261;28;20030;-61
2022/08/12 02:11:21;;;;;;;6.53;4.15;;;18.90;99.90;;;;;;4983269;28;20120;-61
2022/08/12 02:14:24;;;;;;;4.70;4.20;;;18.90;99.90;;;;;;4984375;28;20066;-61
2022/08/12 02:17:11;;;;;;;8.10;4.35;;;18.90;99.90;;;;;;4984422;28;20457;-58
2022/08/12 02:19:53;;;;;;;6.75;4.20;;;18.80;99.90;;;;;;4981105;28;20014;-60
2022/08/12 02:22:29;;;;;;;6.82;4.32;;;18.70;99.90;;;;;;4986897;28;20026;-60
2022/08/12 02:25:06;;;;;;;7.13;4.20;;;19.00;99.90;;;;;;4982604;28;20347;-61
2022/08/12 02:27:41;;;;;;;7.60;3.97;;;18.80;99.90;;;;;;4986035;28;20148;-61
2022/08/12 02:30:10;;;;;;;6.25;4.20;;;18.60;99.90;;;;;;4989111;28;20022;-61
2022/08/12 02:32:39;;;;;;;7.80;4.20;;;18.60;99.90;;;;;;4989204;28;20494;-61
2022/08/12 02:35:09;;;;;;;4.97;4.10;;;18.60;99.90;;;;;;4987302;28;20497;-61
2022/08/12 02:37:37;;;;;;;5.22;4.00;;;18.50;99.90;;;;;;4980839;28;20042;-61
2022/08/12 02:40:04;;;;;;;5.00;4.25;;;18.50;99.90;;;;;;4984295;28;20042;-61
2022/08/12 02:42:32;;;;;;;5.38;3.75;;;18.50;99.90;;;;;;4981931;28;20031;-59
2022/08/12 02:45:03;;;;;;;4.93;3.75;;;18.40;99.90;;;;;;4988721;28;20019;-60
2022/08/12 02:47:32;;;;;;;7.20;3.67;;;18.30;99.90;;;;;;4987368;28;20044;-60
2022/08/12 02:50:01;;;;;;;7.47;4.10;;;18.50;99.90;;;;;;4982077;28;20169;-60
2022/08/12 02:52:28;;;;;;;6.60;4.10;;;18.40;99.90;;;;;;4986297;28;20031;-60
2022/08/12 02:55:02;;;;;;;10.73;4.32;;;18.30;99.90;;;;;;4984067;28;20113;-59
2022/08/12 02:57:30;;;;;;;8.45;4.32;;;18.40;99.90;;;;;;4985923;28;20046;-60
2022/08/12 02:59:56;;;;;;;8.23;4.20;;;18.30;99.90;;;;;;4983440;28;20489;-60
2022/08/12 03:02:27;;;;;;;9.00;4.10;;;18.30;99.90;;;;;;4987703;28;20109;-60
2022/08/12 03:04:55;;;;;;;6.00;4.13;;;18.30;99.90;;;;;;4986154;28;20041;-59
2022/08/12 03:07:36;;;;;;;6.28;3.90;;;18.00;99.90;;;;;;4986330;28;20519;-59
2022/08/12 03:10:02;;;;;;;5.95;4.53;;;18.20;99.90;;;;;;4988527;28;20037;-61
2022/08/12 03:12:29;;;;;;;7.18;4.50;;;18.20;99.90;;;;;;4982976;28;20033;-59
2022/08/12 03:14:57;;;;;;;7.03;4.70;;;18.20;99.90;;;;;;4987240;28;20029;-61
2022/08/12 03:17:30;;;;;;;7.20;4.05;;;18.20;99.90;;;;;;4980821;28;20022;-60
2022/08/12 03:19:56;;;;;;;8.35;4.55;;;17.80;99.90;;;;;;4984107;28;20481;-60
2022/08/12 03:22:23;;;;;;;7.28;4.03;;;18.20;99.90;;;;;;4990141;28;20065;-60
2022/08/12 03:24:49;;;;;;;7.40;3.78;;;18.10;99.90;;;;;;4990652;28;20014;-60
2022/08/12 03:27:15;;;;;;;6.18;4.40;;;18.00;99.90;;;;;;4989766;28;20022;-60
2022/08/12 03:29:48;;;;;;;6.50;4.63;;;18.00;99.90;;;;;;4986412;28;20033;-60
2022/08/12 03:32:14;;;;;;;6.75;4.50;;;18.00;99.90;;;;;;4985247;28;20030;-60
2022/08/12 03:34:41;;;;;;;8.90;4.30;;;17.90;99.90;;;;;;4983589;28;20078;-59
2022/08/12 03:37:09;;;;;;;8.02;4.57;;;18.00;99.90;;;;;;4982678;28;20532;-60
2022/08/12 03:39:40;;;;;;;9.45;4.30;;;17.00;99.90;;;;;;4988949;28;20422;-60
2022/08/12 03:42:14;;;;;;;8.90;4.45;;;17.90;99.90;;;;;;4981944;28;20401;-60
2022/08/12 04:01:51;;;;;;;8.48;4.90;;;17.70;99.90;;;;;;4982050;28;20036;-60
2022/08/12 04:04:17;;;;;;;8.57;4.47;;;17.70;99.90;;;;;;4982679;28;20120;-61
2022/08/12 04:06:44;;;;;;;11.32;4.80;;;17.70;99.90;;;;;;4982540;28;20030;-59
2022/08/12 04:09:11;;;;;;;10.25;4.90;;;17.60;99.90;;;;;;4981254;28;20034;-60
2022/08/12 04:14:26;;;;;;;8.20;4.82;;;17.60;99.90;;;;;;4984737;28;20227;-58
2022/08/12 04:16:52;;;;;;;5.13;4.50;;;17.80;99.90;;;;;;4983834;28;20047;-60
2022/08/12 04:19:19;;;;;;;7.47;5.10;;;17.60;99.90;;;;;;4990995;28;20042;-60
2022/08/12 04:21:45;;;;;;;8.23;4.88;;;17.70;99.90;;;;;;4981014;28;20070;-60
2022/08/12 04:24:12;;;;;;;6.80;4.85;;;17.50;99.90;;;;;;4984422;28;20486;-58
2022/08/12 04:26:40;;;;;;;5.75;4.80;;;17.60;99.90;;;;;;4983127;28;20050;-60
2022/08/12 04:29:09;;;;;;;10.45;5.47;;;17.60;99.90;;;;;;4984356;28;20030;-60
2022/08/12 04:31:41;;;;;;;6.88;5.28;;;17.60;99.90;;;;;;4980984;28;20041;-60
2022/08/12 04:34:08;;;;;;;6.53;5.00;;;17.80;99.90;;;;;;4986912;28;20371;-60
2022/08/12 04:36:36;;;;;;;8.30;4.85;;;17.60;99.90;;;;;;4984041;28;20053;-61
2022/08/12 04:39:06;;;;;;;7.25;5.30;;;17.60;99.90;;;;;;4987951;28;20547;-61
2022/08/12 04:41:33;;;;;;;7.80;4.88;;;17.70;99.90;;;;;;4982316;28;20054;-60
2022/08/12 04:43:59;;;;;;;7.03;5.05;;;17.60;99.90;;;;;;4987102;28;20034;-60
2022/08/12 04:46:28;;;;;;;7.28;5.05;;;17.70;99.90;;;;;;4985133;28;20037;-60
2022/08/12 04:48:57;;;;;;;6.75;5.50;;;17.80;99.90;;;;;;4983861;28;20774;-60
2022/08/12 04:51:27;;;;;;;9.10;5.15;;;17.90;99.90;;;;;;4986898;28;20058;-60
2022/08/12 04:53:52;;;;;;;9.75;5.40;;;17.80;99.90;;;;;;4986994;28;20393;-60
2022/08/12 04:56:18;;;;;;;8.48;5.22;;;17.90;99.90;;;;;;4987912;28;20101;-60
2022/08/12 04:58:45;;;;;;;8.35;5.32;;;17.90;99.90;;;;;;4985534;28;20034;-58
2022/08/12 05:01:11;;;;;;;7.38;5.00;;;17.90;99.90;;;;;;4988258;28;20104;-61
2022/08/12 05:03:38;;;;;;;8.40;5.32;;;18.00;99.90;;;;;;4991102;28;20480;-59
2022/08/12 05:06:05;;;;;;;9.20;5.60;;;17.90;99.90;;;;;;4987778;28;20034;-61
2022/08/12 05:08:32;;;;;;;8.15;5.00;;;17.90;99.90;;;;;;4985335;28;20492;-60
2022/08/12 05:10:57;;;;;;;10.18;5.50;;;18.10;99.90;;;;;;4987898;28;20045;-61
2022/08/12 05:13:26;;;;;;;8.63;4.97;;;18.40;99.90;;;;;;4986692;28;20026;-61
2022/08/12 05:15:52;;;;;;;10.95;5.65;;;18.50;99.90;;;;;;4988515;28;20419;-59
2022/08/12 05:18:19;;;;;;;9.50;5.10;;;18.70;99.90;;;;;;4989151;28;20030;-60
2022/08/12 05:20:47;;;;;;;10.10;5.20;;;18.70;99.90;;;;;;4993003;28;20034;-60
2022/08/12 05:23:15;;;;;;;9.35;4.93;;;18.80;99.90;;;;;;4986572;28;20512;-61
2022/08/12 05:25:46;;;;;;;11.18;6.03;;;18.80;99.90;;;;;;4987655;28;20538;-62
2022/08/12 05:28:14;;;;;;;25.30;17.30;;;19.00;99.90;;;;;;4989477;28;20036;-58
2022/08/12 05:30:41;;;;;;;11.68;5.15;;;19.10;99.90;;;;;;4988873;28;20034;-61
2022/08/12 05:33:09;;;;;;;8.82;5.00;;;19.20;99.90;;;;;;4989538;28;20494;-59
2022/08/12 05:35:40;;;;;;;12.18;5.32;;;19.30;99.90;;;;;;4980187;28;20102;-60
2022/08/12 05:41:03;;;;;;;9.32;5.18;;;19.60;99.90;;;;;;4986794;28;20079;-61
2022/08/12 05:43:32;;;;;;;9.98;5.43;;;19.60;99.90;;;;;;4987068;28;20085;-60
2022/08/12 05:45:57;;;;;;;13.50;5.78;;;19.90;99.90;;;;;;4987263;28;20030;-61
2022/08/12 05:48:23;;;;;;;8.48;4.80;;;19.80;99.90;;;;;;4984573;28;20037;-60
2022/08/12 05:50:49;;;;;;;12.90;5.43;;;19.90;99.90;;;;;;4985601;28;20018;-61
2022/08/12 05:53:14;;;;;;;13.60;5.18;;;19.90;99.90;;;;;;4988100;28;20018;-60
2022/08/12 05:55:40;;;;;;;8.45;5.15;;;20.00;99.90;;;;;;4987225;28;20053;-60
2022/08/12 05:58:06;;;;;;;11.00;5.15;;;20.10;99.90;;;;;;4988190;28;20026;-61
2022/08/12 06:00:33;;;;;;;10.52;5.18;;;20.20;99.90;;;;;;4989894;28;20032;-61
2022/08/12 06:03:01;;;;;;;13.65;5.70;;;20.40;99.90;;;;;;4991374;28;20393;-61
2022/08/12 06:05:34;;;;;;;9.88;5.68;;;20.50;99.90;;;;;;4985525;28;20475;-61
2022/08/12 06:08:01;;;;;;;13.13;5.40;;;20.60;99.90;;;;;;4991253;28;20117;-60
2022/08/12 06:10:27;;;;;;;10.45;5.30;;;20.70;99.90;;;;;;4986007;28;20417;-61
2022/08/12 06:12:57;;;;;;;10.07;5.00;;;20.70;99.90;;;;;;4985825;28;20101;-61
2022/08/12 06:15:23;;;;;;;12.75;5.28;;;21.00;99.90;;;;;;4988431;28;21150;-61
2022/08/12 06:17:49;;;;;;;16.65;5.43;;;21.00;99.90;;;;;;4986086;28;20494;-60
2022/08/12 06:20:15;;;;;;;10.15;4.97;;;21.20;99.90;;;;;;4986656;28;20057;-61
2022/08/12 06:22:44;;;;;;;9.95;5.28;;;21.20;99.90;;;;;;4986341;28;24516;-61
2022/08/12 06:25:12;;;;;;;13.80;5.50;;;21.40;99.90;;;;;;4985355;28;20105;-61
2022/08/12 06:27:42;;;;;;;14.68;5.28;;;21.40;99.90;;;;;;4983993;28;20112;-61
2022/08/12 06:30:09;;;;;;;15.38;4.88;;;21.40;99.90;;;;;;4986139;28;20022;-61
2022/08/12 06:32:38;;;;;;;10.35;5.28;;;21.40;99.90;;;;;;4985889;28;20022;-61
2022/08/12 06:35:05;;;;;;;11.40;5.70;;;21.50;99.90;;;;;;4985983;28;20149;-61
2022/08/12 06:37:41;;;;;;;13.18;5.30;;;21.70;99.90;;;;;;4984462;28;20026;-61
2022/08/12 06:40:11;;;;;;;19.38;5.47;;;21.70;99.90;;;;;;4984567;28;20035;-62
2022/08/12 06:42:47;;;;;;;12.73;5.80;;;21.80;99.90;;;;;;4989847;28;20027;-61
2022/08/12 06:45:18;;;;;;;14.48;5.65;;;21.90;99.90;;;;;;4982761;28;20034;-62
2022/08/12 06:47:44;;;;;;;11.60;5.40;;;22.00;99.90;;;;;;4981896;28;20058;-62
2022/08/12 06:50:17;;;;;;;14.10;5.43;;;22.20;99.90;;;;;;4982142;28;20030;-62
2022/08/12 06:52:45;;;;;;;11.50;5.10;;;22.30;99.90;;;;;;4980403;28;20036;-62
2022/08/12 06:55:18;;;;;;;11.43;4.93;;;22.30;99.90;;;;;;4984786;28;20045;-62
2022/08/12 06:57:54;;;;;;;;;;;22.20;99.90;;;;;;4981521;28;20034;-62
2022/08/12 07:00:24;;;;;;;12.43;4.50;;;22.50;99.90;;;;;;4986143;28;19996;-62
2022/08/12 07:02:51;;;;;;;12.82;4.47;;;22.60;99.90;;;;;;4991791;28;20490;-61
2022/08/12 07:05:23;;;;;;;10.60;4.63;;;22.70;99.90;;;;;;4983269;28;20492;-62
2022/08/12 07:08:09;;;;;;;12.27;4.45;;;22.80;99.90;;;;;;4987133;28;20030;-62
2022/08/12 07:10:40;;;;;;;16.55;5.63;;;22.80;99.90;;;;;;4981755;28;20125;-61
2022/08/12 07:13:07;;;;;;;9.43;3.80;;;22.90;99.90;;;;;;4982812;28;20374;-62
2022/08/12 07:15:34;;;;;;;7.65;3.58;;;23.00;99.90;;;;;;4985894;28;20278;-61
2022/08/12 07:18:05;;;;;;;8.15;3.75;;;23.10;99.90;;;;;;4982716;28;20030;-61
2022/08/12 07:20:34;;;;;;;12.10;4.20;;;23.20;99.90;;;;;;4992801;28;20114;-62
2022/08/12 07:23:02;;;;;;;8.00;3.65;;;23.30;99.90;;;;;;4980839;28;20018;-61
2022/08/12 07:25:34;;;;;;;11.20;3.92;;;23.40;99.90;;;;;;4990638;28;20058;-62
2022/08/12 07:28:06;;;;;;;11.20;4.03;;;23.40;99.90;;;;;;4984473;28;20072;-62
2022/08/12 07:30:35;;;;;;;7.28;3.72;;;23.50;99.90;;;;;;4983928;28;20023;-62
2022/08/12 07:33:03;;;;;;;15.13;3.45;;;23.50;99.90;;;;;;4983800;28;20480;-62
2022/08/12 07:35:30;;;;;;;7.95;3.60;;;23.70;99.90;;;;;;4982983;28;20022;-62
2022/08/12 07:37:56;;;;;;;10.48;3.60;;;23.80;99.90;;;;;;4988478;28;20044;-62
2022/08/12 07:40:24;;;;;;;7.93;4.03;;;23.90;99.90;;;;;;4986676;28;20066;-62
2022/08/12 07:42:50;;;;;;;9.27;3.17;;;24.00;99.90;;;;;;4983169;28;20446;-62
2022/08/12 07:45:16;;;;;;;12.43;3.70;;;24.00;99.90;;;;;;4987525;28;20108;-62
2022/08/12 07:47:42;;;;;;;11.13;3.80;;;24.20;99.90;;;;;;4988824;28;20053;-62
2022/08/12 07:50:16;;;;;;;11.65;3.35;;;24.20;99.90;;;;;;4981852;28;20030;-62
2022/08/12 07:52:45;;;;;;;9.15;3.75;;;24.30;99.90;;;;;;4985465;28;20027;-63
2022/08/12 07:55:12;;;;;;;9.50;3.80;;;24.50;99.90;;;;;;4981120;28;20688;-63
2022/08/12 07:57:56;;;;;;;11.90;3.55;;;24.50;99.90;;;;;;4982285;28;20490;-63
2022/08/12 08:00:23;;;;;;;11.05;3.65;;;24.50;99.90;;;;;;4985962;28;20045;-63
2022/08/12 08:02:53;;;;;;;11.13;3.17;;;24.70;99.90;;;;;;4982299;28;20026;-64
2022/08/12 08:05:20;;;;;;;12.95;3.55;;;24.60;99.90;;;;;;4982397;28;20359;-63
2022/08/12 08:07:46;;;;;;;7.13;3.20;;;24.80;99.90;;;;;;4980793;28;20151;-63
2022/08/12 08:10:12;;;;;;;12.75;3.65;;;24.80;99.90;;;;;;4983550;28;20179;-63
2022/08/12 08:12:53;;;;;;;9.32;3.47;;;24.90;99.90;;;;;;4980388;28;20553;-64
2022/08/12 08:15:21;;;;;;;8.77;3.20;;;25.00;99.90;;;;;;4981697;28;20027;-63
2022/08/12 08:18:03;;;;;;;14.75;3.30;;;25.10;99.90;;;;;;4985967;28;20095;-64
2022/08/12 08:20:32;;;;;;;10.63;3.00;;;25.30;99.90;;;;;;4984102;28;20041;-64
2022/08/12 08:23:04;;;;;;;6.55;3.13;;;25.50;99.90;;;;;;4982505;28;20026;-64
2022/08/12 08:25:30;;;;;;;7.75;2.97;;;25.40;99.90;;;;;;4981701;28;20034;-64
2022/08/12 08:27:58;;;;;;;6.28;3.00;;;25.40;99.90;;;;;;4983084;28;20023;-64
2022/08/12 08:30:23;;;;;;;10.27;3.08;;;25.50;99.90;;;;;;4988989;28;20135;-64
2022/08/12 08:32:49;;;;;;;8.68;3.20;;;25.50;99.90;;;;;;4984701;28;20134;-65
2022/08/12 08:35:15;;;;;;;9.00;3.03;;;25.70;99.90;;;;;;4987325;28;20030;-64
2022/08/12 08:37:45;;;;;;;6.85;2.78;;;25.70;99.90;;;;;;4987009;28;20561;-65
2022/08/12 08:42:55;;;;;;;7.65;2.78;;;25.70;99.90;;;;;;4986161;28;20496;-64
2022/08/12 08:45:21;;;;;;;4.97;2.50;;;25.90;99.90;;;;;;4988652;28;20030;-65
2022/08/12 08:47:47;;;;;;;5.53;2.65;;;25.90;99.90;;;;;;4987170;28;20042;-64
2022/08/12 08:50:15;;;;;;;5.40;2.50;;;25.80;99.90;;;;;;4985394;28;20031;-64
2022/08/12 08:52:44;;;;;;;8.77;2.67;;;25.90;99.90;;;;;;4991653;28;20137;-65
2022/08/12 08:55:14;;;;;;;5.65;2.20;;;26.00;99.90;;;;;;4994418;28;20100;-64
2022/08/12 08:57:42;;;;;;;4.40;2.22;;;26.00;99.90;;;;;;4984285;28;20021;-64
2022/08/12 09:00:14;;;;;;;4.43;2.30;;;26.10;99.90;;;;;;4988596;28;20030;-65
2022/08/12 09:02:40;;;;;;;5.05;2.25;;;26.20;99.90;;;;;;4984503;28;20030;-64
2022/08/12 09:05:06;;;;;;;6.43;2.25;;;26.20;99.90;;;;;;4987487;28;20021;-64
2022/08/12 09:07:43;;;;;;;5.85;2.22;;;26.40;99.90;;;;;;4984162;28;20030;-65
2022/08/12 09:10:10;;;;;;;6.38;2.13;;;26.60;99.90;;;;;;4985789;28;20044;-64
2022/08/12 09:15:20;;;;;;;4.82;2.10;;;26.70;99.90;;;;;;4984997;28;20041;-64
2022/08/12 09:17:58;;;;;;;6.18;2.20;;;26.90;99.90;;;;;;4986561;28;20031;-64
2022/08/12 09:20:29;;;;;;;7.22;2.28;;;26.90;99.90;;;;;;4984109;28;20022;-64
2022/08/12 09:23:00;;;;;;;6.82;2.20;;;26.90;99.90;;;;;;4991515;28;20806;-64
2022/08/12 09:25:26;;;;;;;6.93;2.42;;;27.00;99.90;;;;;;4991337;28;20033;-64
2022/08/12 09:27:55;;;;;;;6.78;2.05;;;27.10;99.90;;;;;;4987788;28;20022;-64
2022/08/12 09:30:22;;;;;;;5.03;2.42;;;27.20;99.90;;;;;;4985421;28;20033;-64
2022/08/12 09:32:51;;;;;;;4.13;2.00;;;27.30;99.90;;;;;;4989574;28;20481;-64
2022/08/12 09:35:43;;;;;;;6.20;2.20;;;27.40;99.90;;;;;;4985865;28;20477;-64
2022/08/12 09:38:15;;;;;;;4.85;2.60;;;27.40;99.90;;;;;;4983902;28;20057;-65
2022/08/12 09:40:40;;;;;;;6.70;2.53;;;27.50;99.90;;;;;;4987618;28;20542;-64
2022/08/12 09:45:50;;;;;;;7.35;2.40;;;27.60;99.90;;;;;;4988570;28;20040;-64
2022/08/12 09:48:18;;;;;;;4.40;2.40;;;27.60;99.90;;;;;;4983339;28;20026;-65
2022/08/12 09:50:45;;;;;;;7.20;2.10;;;27.70;99.90;;;;;;4983384;28;20029;-64
2022/08/12 09:53:22;;;;;;;5.65;2.28;;;27.70;99.90;;;;;;4985287;28;20591;-64
2022/08/12 09:55:51;;;;;;;5.68;2.40;;;27.80;99.90;;;;;;4983158;28;20034;-65
2022/08/12 09:58:27;;;;;;;7.22;2.28;;;28.00;99.90;;;;;;4987403;28;20234;-64
2022/08/12 10:01:00;;;;;;;5.88;2.70;;;28.10;99.90;;;;;;4984866;28;20169;-65
2022/08/12 10:03:27;;;;;;;3.53;2.15;;;27.90;99.90;;;;;;4988248;28;20022;-65
2022/08/12 10:05:54;;;;;;;8.30;2.60;;;27.90;99.90;;;;;;4983019;28;20035;-65
2022/08/12 10:08:21;;;;;;;5.07;2.63;;;28.10;99.90;;;;;;4988478;28;20030;-65
2022/08/12 10:13:42;;;;;;;8.30;2.67;;;28.10;97.90;;;;;;4984393;28;20033;-65
2022/08/12 10:16:16;;;;;;;4.93;2.35;;;28.30;98.50;;;;;;4986023;28;20462;-65
2022/08/12 10:18:46;;;;;;;3.33;2.30;;;28.30;96.20;;;;;;4982525;28;20018;-65
2022/08/12 10:21:14;;;;;;;3.95;2.47;;;28.40;96.40;;;;;;4986341;28;20041;-65
2022/08/12 10:23:43;;;;;;;6.75;2.28;;;28.60;94.70;;;;;;4990334;28;20026;-65
2022/08/12 10:31:39;;;;;;;4.50;2.15;;;28.50;95.60;;;;;;4989952;28;20087;-64
2022/08/12 10:34:08;;;;;;;5.35;2.20;;;28.40;95.50;;;;;;4985537;28;20030;-65
2022/08/12 10:36:38;;;;;;;8.95;2.22;;;28.40;96.20;;;;;;4984618;28;20037;-64
2022/08/12 10:39:08;;;;;;;13.48;2.55;;;28.60;94.40;;;;;;4985518;28;20041;-64
2022/08/12 10:44:18;;;;;;;3.92;2.20;;;28.80;94.10;;;;;;4988965;28;20122;-64
2022/08/12 10:46:49;;;;;;;5.50;2.00;;;28.70;94.40;;;;;;4982399;28;20499;-64
2022/08/12 10:49:14;;;;;;;5.90;2.15;;;28.60;93.80;;;;;;4984768;28;20022;-64
2022/08/12 10:51:40;;;;;;;3.78;2.03;;;28.50;93.40;;;;;;4983994;28;20526;-64
2022/08/12 10:54:06;;;;;;;5.95;2.10;;;28.40;95.40;;;;;;4992490;28;20401;-64
2022/08/12 10:56:33;;;;;;;7.55;2.40;;;28.60;92.90;;;;;;4987088;28;20038;-64
2022/08/12 10:58:58;;;;;;;3.22;2.13;;;28.50;93.90;;;;;;4985114;28;20481;-62
2022/08/12 11:01:24;;;;;;;8.27;2.13;;;28.70;92.20;;;;;;4982939;28;20061;-64
2022/08/12 11:03:50;;;;;;;3.72;1.88;;;28.60;94.40;;;;;;4983028;28;20113;-64
2022/08/12 11:06:20;;;;;;;6.55;2.40;;;28.90;91.30;;;;;;4981122;28;20034;-64
2022/08/12 11:08:46;;;;;;;6.70;2.22;;;28.70;92.00;;;;;;4987317;28;20023;-64
2022/08/12 11:11:19;;;;;;;4.38;2.00;;;28.80;92.20;;;;;;4981868;28;20417;-64
2022/08/12 11:13:45;;;;;;;3.83;2.20;;;28.60;91.90;;;;;;4986375;28;20026;-64
2022/08/12 11:16:12;;;;;;;5.45;2.28;;;28.80;90.50;;;;;;4981604;28;20080;-64
2022/08/12 11:18:38;;;;;;;5.93;2.50;;;28.80;90.50;;;;;;4988824;28;20321;-64
2022/08/12 11:21:04;;;;;;;4.90;2.00;;;29.00;89.10;;;;;;4980577;28;20022;-64
2022/08/12 11:23:30;;;;;;;4.03;2.03;;;28.90;90.40;;;;;;4986247;28;20034;-64
2022/08/12 11:25:55;;;;;;;5.00;2.45;;;28.90;90.80;;;;;;4982329;28;20112;-65
2022/08/12 11:28:21;;;;;;;5.72;2.30;;;28.80;91.30;;;;;;4984142;28;20040;-64
2022/08/12 11:30:46;;;;;;;3.08;2.30;;;28.80;91.90;;;;;;4981560;28;20022;-63
2022/08/12 11:33:12;;;;;;;4.88;2.22;;;28.80;92.70;;;;;;4979448;28;20022;-64
2022/08/12 11:35:40;;;;;;;9.20;2.38;;;28.70;90.80;;;;;;4981857;28;20023;-65
2022/08/12 11:38:06;;;;;;;4.93;2.35;;;28.80;89.60;;;;;;4983094;28;20034;-64
2022/08/12 11:40:32;;;;;;;5.47;2.17;;;28.70;90.90;;;;;;4983780;28;20042;-65
2022/08/12 11:42:59;;;;;;;4.93;2.42;;;28.50;90.20;;;;;;4982680;28;20437;-65
2022/08/12 11:45:26;;;;;;;4.93;2.20;;;28.60;90.50;;;;;;4983954;28;20053;-64
2022/08/12 11:47:53;;;;;;;3.65;2.30;;;28.60;90.20;;;;;;4977730;28;20042;-64
2022/08/12 11:50:19;;;;;;;3.55;2.20;;;28.90;86.40;;;;;;4985480;28;20468;-65
2022/08/12 11:52:46;;;;;;;5.82;2.42;;;28.90;89.40;;;;;;4987043;28;20022;-64
2022/08/12 11:55:12;;;;;;;3.83;2.30;;;29.20;85.70;;;;;;4986067;28;20088;-64
2022/08/12 11:57:52;;;;;;;3.95;2.10;;;29.20;85.20;;;;;;4980922;28;20026;-65
2022/08/12 12:00:19;;;;;;;5.30;2.17;;;29.20;86.20;;;;;;4982924;28;20050;-65
2022/08/12 12:02:44;;;;;;;3.78;2.05;;;29.20;86.70;;;;;;4983617;28;20103;-64
2022/08/12 12:05:10;;;;;;;4.00;2.20;;;29.10;81.40;;;;;;4982010;28;20490;-65
2022/08/12 12:07:40;;;;;;;5.13;2.20;;;29.00;80.70;;;;;;4984148;28;20105;-64
2022/08/12 12:10:06;;;;;;;4.22;2.50;;;29.20;80.60;;;;;;4982582;28;20018;-65
2022/08/12 12:12:32;;;;;;;6.88;2.28;;;29.10;84.90;;;;;;4983167;28;20030;-65
2022/08/12 12:14:58;;;;;;;3.03;2.00;;;29.10;84.70;;;;;;4987002;28;20080;-64
2022/08/12 12:17:24;;;;;;;3.25;2.00;;;29.10;87.70;;;;;;4980823;28;20061;-64
2022/08/12 12:19:51;;;;;;;4.03;2.10;;;29.10;83.80;;;;;;4984296;28;20516;-65
2022/08/12 12:22:17;;;;;;;5.05;1.98;;;29.00;83.70;;;;;;4983919;28;20670;-65
2022/08/12 12:24:45;;;;;;;4.25;2.08;;;29.00;83.10;;;;;;4980950;28;20114;-65
2022/08/12 12:27:11;;;;;;;6.78;2.30;;;29.00;83.60;;;;;;4986585;28;20117;-64
2022/08/12 12:29:36;;;;;;;6.50;2.00;;;29.00;79.80;;;;;;4980796;28;20513;-65
2022/08/12 12:32:02;;;;;;;3.63;2.00;;;29.20;86.70;;;;;;4980220;28;20054;-65
2022/08/12 12:34:27;;;;;;;5.38;2.20;;;29.10;80.70;;;;;;4983703;28;20596;-65
2022/08/12 12:36:53;;;;;;;3.75;2.08;;;29.00;82.60;;;;;;4985420;28;20023;-65
2022/08/12 12:39:19;;;;;;;3.35;1.98;;;29.00;83.50;;;;;;4980066;28;20046;-65
2022/08/12 12:41:44;;;;;;;6.47;1.90;;;28.90;82.50;;;;;;4982191;28;20058;-65
2022/08/12 12:44:10;;;;;;;5.68;2.25;;;28.90;82.10;;;;;;4984503;28;20104;-65
2022/08/12 12:46:35;;;;;;;2.60;1.90;;;28.90;80.20;;;;;;4979505;28;20084;-65
2022/08/12 12:49:01;;;;;;;4.88;2.13;;;29.40;81.10;;;;;;4979870;28;20088;-64
2022/08/12 12:51:26;;;;;;;5.18;2.17;;;29.30;76.70;;;;;;4979822;28;20034;-65
2022/08/12 12:53:54;;;;;;;4.53;2.30;;;29.40;76.20;;;;;;4980106;28;20030;-65
2022/08/12 12:56:21;;;;;;;7.63;2.30;;;29.20;80.70;;;;;;4980883;28;20030;-65
2022/08/12 12:58:49;;;;;;;8.23;2.38;;;29.10;82.60;;;;;;4979423;28;20525;-64
2022/08/12 13:01:15;;;;;;;3.90;2.08;;;29.50;79.90;;;;;;4972227;28;20037;-65
2022/08/12 13:03:41;;;;;;;5.68;2.03;;;29.20;81.50;;;;;;4979215;28;20071;-65
2022/08/12 13:06:07;;;;;;;6.35;2.05;;;29.60;76.60;;;;;;4979942;28;20683;-65
2022/08/12 13:08:33;;;;;;;3.42;2.10;;;29.50;76.40;;;;;;4982860;28;20026;-65
2022/08/12 13:11:02;;;;;;;3.67;2.20;;;29.70;75.50;;;;;;4983279;28;20129;-65
2022/08/12 13:13:28;;;;;;;4.72;2.30;;;29.70;76.10;;;;;;4984163;28;20038;-65
2022/08/12 13:15:55;;;;;;;6.20;2.22;;;29.40;78.40;;;;;;4985633;28;20439;-65
2022/08/12 13:18:22;;;;;;;5.10;2.00;;;29.20;75.50;;;;;;4985422;28;20029;-65
2022/08/12 13:20:48;;;;;;;5.30;1.92;;;29.30;74.90;;;;;;4988046;28;20068;-65
2022/08/12 13:23:16;;;;;;;3.08;2.08;;;29.30;75.00;;;;;;4983432;28;20378;-65
2022/08/12 13:25:42;;;;;;;5.95;2.30;;;29.20;77.10;;;;;;4985095;28;20033;-64
2022/08/12 13:28:20;;;;;;;3.85;2.05;;;29.20;80.10;;;;;;4985514;28;20401;-65
2022/08/12 13:30:47;;;;;;;3.55;1.90;;;29.50;73.70;;;;;;4989379;28;20022;-65
2022/08/12 13:33:14;;;;;;;6.32;2.22;;;29.60;74.40;;;;;;4983748;28;20038;-65
2022/08/12 13:35:41;;;;;;;3.80;1.80;;;29.50;76.40;;;;;;4987925;28;20137;-65
2022/08/12 13:38:09;;;;;;;3.15;1.90;;;29.30;72.80;;;;;;4984339;28;20031;-65
2022/08/12 13:40:38;;;;;;;3.47;1.90;;;29.40;70.30;;;;;;4982387;28;20026;-65
2022/08/12 13:43:05;;;;;;;2.47;1.98;;;29.50;72.20;;;;;;4982892;28;20033;-65
2022/08/12 13:45:32;;;;;;;3.47;1.80;;;29.30;75.60;;;;;;4980789;28;20085;-65
2022/08/12 13:48:04;;;;;;;3.83;2.15;;;29.30;73.00;;;;;;4985731;28;20035;-64
2022/08/12 13:50:39;;;;;;;2.50;1.83;;;29.30;75.60;;;;;;4982444;28;20030;-59
2022/08/12 13:53:08;;;;;;;3.33;1.65;;;29.10;75.80;;;;;;4983671;28;20174;-58
2022/08/12 13:55:35;;;;;;;2.70;1.95;;;29.20;73.00;;;;;;4982948;28;20375;-58
2022/08/12 13:58:04;;;;;;;2.67;1.63;;;29.30;73.20;;;;;;4978613;28;20034;-60
2022/08/12 14:00:35;;;;;;;3.13;1.85;;;29.50;72.80;;;;;;4982567;28;20022;-60
2022/08/12 14:03:01;;;;;;;3.65;2.13;;;29.30;75.50;;;;;;4984067;28;20084;-60
2022/08/12 14:05:27;;;;;;;3.75;2.00;;;29.60;71.50;;;;;;4979684;28;20045;-58
2022/08/12 14:08:01;;;;;;;3.90;1.65;;;29.70;73.00;;;;;;4984162;28;20030;-59
2022/08/12 14:10:37;;;;;;;3.30;2.17;;;29.50;72.00;;;;;;4983716;28;20265;-60
2022/08/12 14:13:23;;;;;;;4.05;1.80;;;29.20;71.50;;;;;;4967011;28;20748;-62
2022/08/12 14:15:51;;;;;;;3.30;2.10;;;29.20;74.70;;;;;;4979671;28;20026;-62
2022/08/12 14:18:18;;;;;;;3.88;1.80;;;29.20;71.70;;;;;;4981155;28;20037;-62
2022/08/12 14:20:46;;;;;;;3.30;1.85;;;29.20;72.40;;;;;;4981865;28;20041;-61
2022/08/12 14:23:12;;;;;;;2.70;1.92;;;29.30;72.60;;;;;;4982959;28;20045;-60
2022/08/12 14:25:38;;;;;;;6.90;2.22;;;29.30;74.20;;;;;;4984391;28;20030;-59
2022/08/12 14:28:14;;;;;;;9.95;5.85;;;29.20;73.20;;;;;;4984140;28;20030;-62
2022/08/12 14:30:55;;;;;;;5.15;2.05;;;29.20;72.80;;;;;;4984978;28;20065;-63
2022/08/12 14:33:22;;;;;;;2.33;1.73;;;29.60;69.70;;;;;;4979645;28;20026;-59
2022/08/12 14:35:49;;;;;;;3.35;2.00;;;29.40;72.10;;;;;;4994689;28;20575;-59